Time;durP1;ratioP1;P1;durP2;ratioP2;P2;SDS_P1;SDS_P2;PMS_P1;PMS_P2;Temp;Humidity;BMP_temperature;BMP_pressure;BME280_temperature;BME280_humidity;BME280_pressure;Samples;Min_cycle;Max_cycle;Signal;HPM_P1;HPM_P2
2022/06/12 00:00:12;;;;;;;5.03;3.30;;;;;;;23.52;47.16;100582.03;20801718;27;101415;-74
2022/06/12 00:10:13;;;;;;;5.35;3.28;;;;;;;23.46;46.29;100575.44;20809485;27;97981;-74
2022/06/12 00:20:16;;;;;;;3.35;3.15;;;;;;;23.58;45.94;100582.38;20807223;27;97809;-74
2022/06/12 00:30:20;;;;;;;3.42;3.00;;;;;;;23.64;45.12;100567.78;20808868;27;100502;-74
2022/06/12 00:40:21;;;;;;;3.13;2.65;;;;;;;23.72;44.04;100551.28;20804202;27;101164;-74
2022/06/12 00:50:22;;;;;;;2.83;2.30;;;;;;;23.52;42.59;100545.84;20810246;27;100342;-74
2022/06/12 01:00:23;;;;;;;2.83;2.63;;;;;;;23.37;42.53;100540.06;20816587;27;99388;-74
2022/06/12 01:10:28;;;;;;;3.80;2.50;;;;;;;23.28;42.92;100527.66;20803399;27;97699;-74
2022/06/12 01:20:36;;;;;;;2.60;2.40;;;;;;;23.19;43.49;100534.53;20793581;27;98828;-74
2022/06/12 01:30:43;;;;;;;5.75;2.90;;;;;;;23.11;44.22;100537.78;20810937;27;98427;-73
2022/06/12 01:40:58;;;;;;;4.30;2.72;;;;;;;23.14;44.46;100531.41;20808017;27;102386;-73
2022/06/12 01:51:13;;;;;;;4.03;2.53;;;;;;;23.08;44.15;100527.47;20813226;27;97861;-73
2022/06/12 02:01:35;;;;;;;2.80;2.60;;;;;;;22.97;43.65;100522.25;20814026;27;99616;-73
2022/06/12 02:22:09;;;;;;;2.88;2.63;;;;;;;22.83;44.24;100528.69;20807823;27;97513;-73
2022/06/12 02:32:22;;;;;;;2.80;2.50;;;;;;;22.79;44.25;100530.75;20813452;27;100580;-73
2022/06/12 02:42:28;;;;;;;3.05;2.70;;;;;;;22.70;44.67;100545.53;20821339;27;98220;-73
2022/06/12 02:52:41;;;;;;;3.88;2.90;;;;;;;22.61;45.13;100543.63;20783635;27;100578;-74
2022/06/12 03:03:00;;;;;;;4.50;2.47;;;;;;;22.54;45.08;100547.72;20808598;27;99351;-74
2022/06/12 03:13:04;;;;;;;2.83;2.58;;;;;;;22.53;44.54;100556.59;20814056;27;97432;-74
2022/06/12 03:23:46;;;;;;;5.13;2.65;;;;;;;22.48;44.64;100561.41;20797531;27;103487;-74
2022/06/12 03:33:51;;;;;;;3.40;2.63;;;;;;;22.47;44.26;100557.94;20774404;27;100410;-74
2022/06/12 03:44:06;;;;;;;2.80;2.60;;;;;;;22.37;44.79;100555.19;20806885;27;101109;-74
2022/06/12 03:54:26;;;;;;;3.20;2.90;;;;;;;22.34;45.07;100562.50;20804146;27;101763;-74
2022/06/12 04:04:30;;;;;;;3.53;2.67;;;;;;;22.36;44.88;100573.75;20804159;27;100915;-74
2022/06/12 04:14:37;;;;;;;5.55;2.45;;;;;;;22.34;44.60;100581.78;20792885;27;99753;-74
2022/06/12 04:24:52;;;;;;;6.20;2.85;;;;;;;22.41;44.44;100583.97;20806410;27;100555;-74
2022/06/12 04:34:53;;;;;;;3.63;2.47;;;;;;;22.44;44.23;100589.03;20803247;27;101826;-74
2022/06/12 04:44:54;;;;;;;4.65;2.38;;;;;;;22.50;44.42;100583.25;20808640;27;98053;-74
2022/06/12 04:54:54;;;;;;;2.50;2.30;;;;;;;22.54;44.12;100577.59;20802285;27;101191;-74
2022/06/12 05:04:55;;;;;;;3.15;2.45;;;;;;;22.58;43.80;100588.72;20810838;27;98494;-73
2022/06/12 05:14:55;;;;;;;2.80;2.20;;;;;;;22.57;43.96;100594.13;20847695;27;98616;-74
2022/06/12 05:24:56;;;;;;;3.08;2.38;;;;;;;22.68;44.21;100589.69;20836886;27;97319;-76
2022/06/12 05:34:56;;;;;;;2.40;2.20;;;;;;;22.77;44.04;100603.09;20835788;27;100434;-76
2022/06/12 05:44:57;;;;;;;4.57;2.50;;;;;;;22.81;43.01;100607.16;20846405;27;97971;-76
2022/06/12 05:54:58;;;;;;;7.20;2.40;;;;;;;22.94;43.04;100614.94;20849071;27;101569;-75
2022/06/12 06:04:59;;;;;;;3.05;2.00;;;;;;;23.14;43.65;100621.22;20835277;27;99718;-76
2022/06/12 06:14:59;;;;;;;11.80;2.95;;;;;;;23.17;42.81;100621.00;20847927;27;96899;-74
2022/06/12 06:25:00;;;;;;;4.05;2.50;;;;;;;23.23;43.22;100614.38;20855688;27;97048;-75
2022/06/12 06:35:01;;;;;;;3.30;2.30;;;;;;;23.28;43.72;100622.78;20847678;27;98680;-74
2022/06/12 06:55:23;;;;;;;5.13;4.05;;;;;;;23.52;43.40;100616.41;20859334;27;97467;-75
2022/06/12 07:05:24;;;;;;;7.03;3.60;;;;;;;23.59;43.32;100623.66;20843663;27;100625;-76
2022/06/12 07:15:27;;;;;;;3.67;2.80;;;;;;;23.59;42.89;100613.09;20845584;27;99341;-75
2022/06/12 07:25:27;;;;;;;4.28;2.90;;;;;;;23.67;42.68;100615.13;20854667;27;101287;-75
2022/06/12 07:35:29;;;;;;;3.30;2.65;;;;;;;23.69;42.44;100605.22;20850304;27;100403;-77
2022/06/12 07:45:30;;;;;;;3.60;2.47;;;;;;;23.70;42.30;100593.69;20846527;27;99571;-74
2022/06/12 07:55:31;;;;;;;4.05;2.70;;;;;;;23.86;43.34;100595.84;20848610;27;97246;-80
2022/06/12 08:05:32;;;;;;;15.65;10.43;;;;;;;23.77;42.44;100600.13;20858482;27;97672;-75
2022/06/12 08:15:34;;;;;;;5.38;3.53;;;;;;;23.95;41.93;100597.75;20846075;27;98299;-76
2022/06/12 08:25:36;;;;;;;5.30;2.87;;;;;;;24.02;42.65;100592.75;20834734;27;100934;-76
2022/06/12 08:35:37;;;;;;;4.65;2.40;;;;;;;24.11;40.09;100580.56;20850666;27;98683;-76
2022/06/12 08:45:48;;;;;;;4.18;2.80;;;;;;;24.39;40.99;100580.78;20853688;27;97184;-75
2022/06/12 08:55:59;;;;;;;3.87;2.60;;;;;;;24.57;41.16;100592.41;20849638;27;100973;-76
2022/06/12 09:06:17;;;;;;;3.00;2.70;;;;;;;24.74;41.12;100582.97;20830741;27;99861;-75
2022/06/12 09:16:45;;;;;;;5.55;2.40;;;;;;;24.86;40.47;100573.06;20861559;27;98956;-74
2022/06/12 09:27:13;;;;;;;3.75;2.97;;;;;;;24.90;40.85;100568.34;20849950;27;97238;-76
2022/06/12 09:48:15;;;;;;;7.90;2.80;;;;;;;25.16;40.30;100563.31;20858589;27;97681;-74
2022/06/12 09:58:30;;;;;;;3.28;2.80;;;;;;;25.33;41.30;100559.13;20857018;27;101086;-75
2022/06/12 10:08:40;;;;;;;2.70;2.50;;;;;;;25.46;39.87;100542.91;20853783;27;98497;-75
2022/06/12 10:18:54;;;;;;;5.28;2.58;;;;;;;25.55;41.97;100525.34;20853812;27;99715;-77
2022/06/12 10:29:12;;;;;;;5.40;2.95;;;;;;;25.67;40.71;100518.00;20845715;27;97017;-78
2022/06/12 10:39:18;;;;;;;3.10;2.53;;;;;;;25.70;40.44;100515.91;20855514;27;102508;-77
2022/06/12 10:49:23;;;;;;;2.72;2.50;;;;;;;25.83;38.78;100515.59;20857126;27;97269;-77
2022/06/12 10:59:32;;;;;;;4.72;2.50;;;;;;;25.93;38.12;100496.97;20845913;27;97298;-78
2022/06/12 11:10:27;;;;;;;3.92;2.70;;;;;;;26.04;39.04;100494.09;20854198;27;98148;-77
2022/06/12 11:20:49;;;;;;;2.80;2.50;;;;;;;26.10;39.63;100492.72;20757562;27;97855;-78
2022/06/12 11:31:09;;;;;;;3.17;2.70;;;;;;;26.31;39.88;100484.47;20844163;27;100247;-77
2022/06/12 11:41:15;;;;;;;4.07;2.55;;;;;;;26.29;39.33;100475.84;20854063;27;97563;-80
2022/06/12 11:51:51;;;;;;;5.60;3.03;;;;;;;26.40;41.42;100469.44;20874592;27;100759;-80
2022/06/12 12:02:07;;;;;;;2.92;2.67;;;;;;;26.55;40.14;100458.31;20851889;27;97766;-79
2022/06/12 12:12:18;;;;;;;10.23;2.70;;;;;;;26.55;40.94;100463.59;20874238;27;98205;-81
2022/06/12 12:22:21;;;;;;;;;;;;;;;26.58;41.55;100448.22;20864739;27;97700;-81
2022/06/12 12:32:22;;;;;;;4.60;2.60;;;;;;;26.58;41.24;100434.09;20863813;27;99883;-82
2022/06/12 12:42:30;;;;;;;3.83;2.78;;;;;;;26.59;41.69;100415.34;20881569;27;97653;-79
2022/06/12 12:52:48;;;;;;;5.25;2.90;;;;;;;26.64;41.20;100420.22;20858073;27;100031;-77
2022/06/12 13:02:58;;;;;;;3.25;2.88;;;;;;;26.66;41.67;100413.75;20862569;27;97058;-80
2022/06/12 13:13:36;;;;;;;5.28;2.70;;;;;;;26.74;42.26;100399.69;20853235;27;100850;-80
2022/06/12 13:23:46;;;;;;;4.68;2.80;;;;;;;26.79;42.45;100393.94;20870485;27;97486;-80
2022/06/12 13:33:53;;;;;;;6.70;2.90;;;;;;;26.82;42.44;100396.31;20881382;27;99124;-81
2022/06/12 13:43:55;;;;;;;7.85;2.92;;;;;;;26.90;42.67;100382.22;20876757;27;97492;-80
2022/06/12 13:54:13;;;;;;;3.40;2.90;;;;;;;26.94;42.65;100378.25;20874323;27;99345;-81
2022/06/12 14:04:24;;;;;;;3.50;2.90;;;;;;;27.02;42.84;100372.19;20869106;27;100559;-82
2022/06/12 14:14:46;;;;;;;3.58;3.15;;;;;;;27.06;43.20;100373.50;20874985;27;98727;-82
2022/06/12 14:25:22;;;;;;;3.55;3.00;;;;;;;27.13;41.56;100369.22;20880848;27;100870;-84
2022/06/12 14:35:23;;;;;;;2.88;2.67;;;;;;;27.22;40.91;100364.78;20874222;27;97856;-81
2022/06/12 14:45:24;;;;;;;6.65;3.40;;;;;;;27.24;38.68;100360.16;20901803;27;97237;-80
2022/06/12 14:55:25;;;;;;;4.28;3.33;;;;;;;27.26;39.28;100350.19;20871193;27;97516;-74
2022/06/12 15:05:28;;;;;;;7.85;2.80;;;;;;;27.40;37.91;100338.09;20842663;27;101200;-78
2022/06/12 15:15:29;;;;;;;3.83;2.40;;;;;;;27.45;39.19;100335.81;20843167;27;98263;-75
2022/06/12 15:35:56;;;;;;;3.90;2.45;;;;;;;27.57;37.85;100315.06;20848715;27;97219;-77
2022/06/12 15:45:56;;;;;;;4.22;2.70;;;;;;;27.71;37.26;100311.78;20851854;27;98878;-78
2022/06/12 15:55:58;;;;;;;6.73;2.90;;;;;;;27.78;38.95;100303.97;20824240;27;100186;-78
2022/06/12 16:05:59;;;;;;;4.05;2.78;;;;;;;27.79;38.57;100298.50;20838839;27;99238;-75
2022/06/12 16:16:00;;;;;;;10.20;2.90;;;;;;;27.67;37.40;100297.13;20835376;27;100738;-75
2022/06/12 16:26:02;;;;;;;2.88;2.45;;;;;;;27.66;38.03;100289.31;20846964;27;100394;-74
2022/06/12 16:36:04;;;;;;;;;;;;;;;27.60;38.16;100288.13;20860491;27;98104;-73
2022/06/12 16:46:04;;;;;;;3.38;2.40;;;;;;;27.61;38.54;100295.97;20859962;27;97066;-76
2022/06/12 16:56:05;;;;;;;2.92;2.67;;;;;;;27.58;38.01;100300.78;20849857;27;97279;-76
2022/06/12 17:06:06;;;;;;;3.43;2.70;;;;;;;27.54;37.92;100300.28;20867385;27;97577;-76
2022/06/12 17:16:07;;;;;;;5.45;2.90;;;;;;;27.43;37.61;100297.94;20874309;27;100090;-78
2022/06/12 17:26:07;;;;;;;8.98;6.20;;;;;;;27.37;37.28;100298.53;20861059;27;98087;-77
2022/06/12 17:36:08;;;;;;;5.78;5.03;;;;;;;27.30;37.54;100307.16;20867514;27;100365;-80
2022/06/12 17:46:09;;;;;;;4.97;3.30;;;;;;;27.19;36.51;100302.13;20846909;27;99749;-78
2022/06/12 17:56:11;;;;;;;4.60;3.40;;;;;;;27.07;37.00;100311.41;20844767;27;98573;-79
2022/06/12 18:06:13;;;;;;;3.95;2.85;;;;;;;26.95;37.35;100330.28;20846772;27;99553;-78
2022/06/12 18:26:33;;;;;;;6.40;2.63;;;;;;;26.61;36.66;100320.44;20853634;27;97695;-78
2022/06/12 18:36:35;;;;;;;2.63;2.17;;;;;;;26.42;37.12;100326.78;20861693;27;96959;-77
2022/06/12 18:46:36;;;;;;;7.70;4.03;;;;;;;26.27;37.96;100325.66;20848525;27;96953;-80
2022/06/12 18:56:38;;;;;;;7.22;3.13;;;;;;;26.12;38.35;100342.16;20840234;27;98280;-84
2022/06/12 19:06:40;;;;;;;4.50;2.70;;;;;;;26.02;38.50;100350.16;20854487;27;100599;-80
2022/06/12 19:16:42;;;;;;;4.90;2.25;;;;;;;26.07;38.44;100354.19;20838107;27;100772;-77
2022/06/12 19:26:44;;;;;;;4.00;2.22;;;;;;;25.87;38.46;100360.44;20831664;27;98374;-80
2022/06/12 19:36:46;;;;;;;4.75;2.67;;;;;;;25.64;38.87;100352.09;20841790;27;98739;-76
2022/06/12 19:46:47;;;;;;;;;;;;;;;25.48;39.27;100354.56;20837284;27;97710;-74
2022/06/12 19:56:48;;;;;;;4.78;2.55;;;;;;;25.42;39.39;100356.81;20839880;27;99355;-73
2022/06/12 20:17:08;;;;;;;7.70;2.72;;;;;;;25.34;40.49;100346.09;20847031;27;98204;-73
2022/06/12 20:27:08;;;;;;;3.77;2.90;;;;;;;25.28;40.63;100345.84;20826967;27;100110;-73
2022/06/12 20:37:10;;;;;;;3.63;2.93;;;;;;;25.24;40.85;100348.81;20852650;27;100288;-73
2022/06/12 20:47:11;;;;;;;6.22;3.38;;;;;;;25.14;41.34;100352.47;20860202;27;97090;-74
2022/06/12 20:57:11;;;;;;;4.05;2.75;;;;;;;24.99;41.02;100355.59;20842862;27;98864;-75
2022/06/12 21:07:12;;;;;;;5.97;3.10;;;;;;;24.85;41.61;100366.63;20852528;27;99431;-74
2022/06/12 21:17:13;;;;;;;4.47;2.87;;;;;;;25.09;42.26;100379.41;20857991;27;97118;-74
2022/06/12 21:27:13;;;;;;;6.78;3.03;;;;;;;25.05;42.17;100400.03;20858251;27;100524;-75
2022/06/12 21:37:14;;;;;;;4.97;3.15;;;;;;;24.61;43.21;100392.56;20852029;27;97268;-74
2022/06/12 21:47:14;;;;;;;5.82;3.08;;;;;;;24.24;44.77;100392.44;20825474;27;101423;-74
2022/06/12 21:57:15;;;;;;;4.95;3.20;;;;;;;23.94;45.21;100395.06;20815822;27;100086;-75
2022/06/12 22:07:17;;;;;;;8.50;3.25;;;;;;;23.82;46.07;100394.31;20816123;27;98529;-75
2022/06/12 22:17:19;;;;;;;5.67;3.63;;;;;;;23.95;45.86;100390.63;20803501;27;97679;-74
2022/06/12 22:27:19;;;;;;;4.70;3.20;;;;;;;24.20;44.96;100399.00;20811742;27;98929;-74
2022/06/12 22:37:20;;;;;;;4.68;3.15;;;;;;;24.24;45.56;100400.38;20813970;27;101239;-74
2022/06/12 22:47:20;;;;;;;8.17;3.80;;;;;;;24.21;45.33;100395.41;20828089;27;98028;-74
2022/06/12 22:57:21;;;;;;;4.65;3.40;;;;;;;24.17;45.46;100393.97;20834936;27;100040;-73
2022/06/12 23:07:21;;;;;;;4.10;2.95;;;;;;;24.14;45.69;100380.06;20834766;27;97896;-74
2022/06/12 23:17:22;;;;;;;3.42;3.13;;;;;;;24.09;45.87;100384.09;20828120;27;97169;-73
2022/06/12 23:27:23;;;;;;;5.60;3.20;;;;;;;24.02;45.69;100383.78;20813812;27;99387;-74
2022/06/12 23:37:23;;;;;;;3.78;2.90;;;;;;;23.96;45.75;100376.41;20825490;27;97560;-75
2022/06/12 23:47:24;;;;;;;3.35;3.05;;;;;;;23.95;45.90;100367.66;20822599;27;99901;-74
2022/06/12 23:57:25;;;;;;;4.68;3.08;;;;;;;23.93;45.54;100366.13;20830140;27;99694;-75
